createdAt,value
2022-10-14T00:03:17.591Z,27.20
2022-10-14T00:13:19.089Z,26.17
2022-10-14T00:23:20.593Z,26.73
2022-10-14T00:33:22.753Z,26.90
2022-10-14T00:43:26.386Z,24.23
2022-10-14T00:53:27.872Z,26.73
2022-10-14T01:03:34.371Z,25.33
2022-10-14T01:13:41.979Z,24.53
2022-10-14T01:24:01.066Z,25.53
2022-10-14T01:34:10.378Z,24.73
2022-10-14T01:44:14.455Z,26.00
2022-10-14T01:54:27.338Z,25.13
2022-10-14T02:04:29.079Z,23.57
2022-10-14T02:14:49.972Z,25.33
2022-10-14T02:24:55.526Z,25.63
2022-10-14T02:34:59.818Z,26.97
2022-10-14T02:45:02.473Z,25.00
2022-10-14T02:55:04.309Z,24.93
2022-10-14T03:05:06.136Z,25.00
2022-10-14T03:15:08.433Z,26.03
2022-10-14T03:25:10.209Z,25.60
2022-10-14T03:35:31.945Z,26.47
2022-10-14T03:45:34.451Z,26.87
2022-10-14T03:55:37.358Z,25.97
2022-10-14T04:05:40.377Z,36.60
2022-10-14T04:15:52.633Z,28.47
2022-10-14T04:25:58.710Z,26.63
2022-10-14T04:36:06.220Z,23.77
2022-10-14T04:46:11.532Z,26.37
2022-10-14T04:56:16.057Z,27.40
2022-10-14T05:06:28.485Z,27.00
2022-10-14T05:16:30.646Z,25.83
2022-10-14T05:26:32.364Z,23.47
2022-10-14T05:36:37.543Z,24.70
2022-10-14T05:46:40.749Z,21.27
2022-10-14T05:56:43.126Z,21.30
2022-10-14T06:06:45.147Z,20.40
2022-10-14T06:16:49.817Z,19.43
2022-10-14T06:26:51.921Z,20.70
2022-10-14T06:36:53.391Z,14.10
2022-10-14T06:46:56.359Z,12.80
2022-10-14T06:56:57.851Z,10.73
2022-10-14T07:06:59.314Z,9.63
2022-10-14T07:17:01.065Z,9.43
2022-10-14T07:37:05.182Z,10.23
2022-10-14T07:47:07.352Z,9.23
2022-10-14T07:57:08.803Z,10.17
2022-10-14T08:07:10.278Z,8.93
2022-10-14T08:17:11.833Z,8.03
2022-10-14T08:27:13.470Z,7.73
2022-10-14T08:37:15.114Z,7.20
2022-10-14T08:47:22.858Z,10.60
2022-10-14T08:57:28.609Z,5.13
2022-10-14T09:07:32.178Z,6.05
2022-10-14T09:17:45.751Z,7.28
2022-10-14T09:37:54.069Z,5.32
2022-10-14T09:48:04.060Z,4.47
2022-10-14T09:58:07.656Z,4.32
2022-10-14T10:08:18.146Z,6.40
2022-10-14T10:18:19.792Z,5.70
2022-10-14T10:28:32.735Z,5.47
2022-10-14T10:38:45.346Z,5.37
2022-10-14T10:48:54.265Z,5.83
2022-10-14T10:59:16.912Z,4.50
2022-10-14T11:09:53.327Z,3.80
2022-10-14T11:20:14.193Z,3.50
2022-10-14T11:30:43.893Z,4.20
2022-10-14T11:41:01.246Z,4.60
2022-10-14T11:51:11.098Z,11.63
2022-10-14T12:01:16.533Z,13.07
2022-10-14T12:11:35.611Z,10.93
2022-10-14T12:21:50.859Z,11.73
2022-10-14T12:32:04.585Z,11.40
2022-10-14T12:42:12.848Z,10.90
2022-10-14T12:52:21.137Z,12.47
2022-10-14T13:02:22.861Z,13.33
2022-10-14T13:12:24.511Z,12.27
2022-10-14T13:22:34.474Z,12.50
2022-10-14T13:33:09.986Z,13.00
2022-10-14T13:43:28.824Z,13.97
2022-10-14T13:53:34.286Z,11.73
2022-10-14T14:03:44.716Z,12.23
2022-10-14T14:14:03.714Z,11.43
2022-10-14T14:24:15.933Z,11.93
2022-10-14T14:34:24.075Z,3.43
2022-10-14T14:44:29.703Z,3.23
2022-10-14T14:54:31.146Z,2.60
2022-10-14T15:04:35.926Z,2.80
2022-10-14T15:15:14.138Z,2.60
2022-10-14T15:25:21.567Z,3.20
2022-10-14T15:35:25.243Z,3.20
2022-10-14T15:45:26.917Z,3.50
2022-10-14T15:55:34.171Z,3.80
2022-10-14T16:05:36.707Z,3.40
2022-10-14T16:15:51.910Z,3.87
2022-10-14T16:25:54.946Z,3.40
2022-10-14T16:35:57.339Z,3.50
2022-10-14T16:46:00.512Z,3.10
2022-10-14T16:56:02.503Z,3.30
2022-10-14T17:06:04.162Z,3.07
2022-10-14T17:16:06.446Z,3.07
2022-10-14T17:26:12.097Z,3.00
2022-10-14T17:36:32.342Z,4.20
2022-10-14T17:46:33.972Z,4.00
2022-10-14T17:56:39.291Z,3.20
2022-10-14T18:06:44.700Z,3.43
2022-10-14T18:16:47.650Z,4.47
2022-10-14T18:26:50.594Z,4.97
2022-10-14T18:36:52.327Z,5.47
2022-10-14T18:46:54.053Z,4.70
2022-10-14T18:56:55.673Z,4.10
2022-10-14T19:06:57.204Z,4.50
2022-10-14T19:16:58.683Z,5.20
2022-10-14T19:27:00.154Z,15.80
2022-10-14T19:37:01.771Z,5.67
2022-10-14T19:47:03.258Z,4.90
2022-10-14T19:57:06.102Z,7.00
2022-10-14T20:07:07.593Z,4.30
2022-10-14T20:17:09.179Z,4.13
2022-10-14T20:27:12.258Z,5.23
2022-10-14T20:37:14.061Z,5.50
2022-10-14T20:47:16.125Z,5.33
2022-10-14T20:57:17.612Z,6.37
2022-10-14T21:07:21.613Z,4.50
2022-10-14T21:17:23.252Z,3.87
2022-10-14T21:27:25.476Z,4.50
2022-10-14T21:37:27.051Z,4.73
2022-10-14T21:47:29.083Z,4.40
2022-10-14T21:57:30.920Z,5.53
2022-10-14T22:07:32.396Z,5.37
2022-10-14T22:17:34.052Z,5.07
2022-10-14T22:27:37.914Z,4.10
2022-10-14T22:37:39.357Z,5.60
2022-10-14T22:47:40.838Z,4.20
2022-10-14T22:57:42.318Z,4.83
2022-10-14T23:07:44.166Z,4.13
2022-10-14T23:17:46.748Z,3.00
2022-10-14T23:37:49.925Z,3.27
2022-10-14T23:47:51.414Z,2.63
2022-10-14T23:57:53.504Z,2.80
